createdAt,value
2022-07-29T11:02:41.558Z,24.90
2022-07-29T11:05:24.412Z,24.90
2022-07-29T11:08:19.469Z,25.00
2022-07-29T11:10:49.440Z,25.10
2022-07-29T11:13:55.426Z,24.80
2022-07-29T11:16:25.266Z,24.90
2022-07-29T11:19:11.131Z,24.90
2022-07-29T11:21:53.879Z,24.80
2022-07-29T11:24:30.548Z,24.80
2022-07-29T11:27:18.427Z,24.20
2022-07-29T11:29:57.479Z,24.80
2022-07-29T11:32:35.997Z,25.20
2022-07-29T11:35:19.313Z,25.60
2022-07-29T11:38:22.801Z,25.50
2022-07-29T11:41:18.394Z,25.50
2022-07-29T11:43:53.731Z,25.40
2022-07-29T11:46:49.410Z,25.30
2022-07-29T11:49:32.294Z,25.10
2022-07-29T11:52:01.414Z,25.10
2022-07-29T11:54:38.887Z,25.10
2022-07-29T11:57:23.065Z,25.00
2022-07-29T12:00:09.866Z,25.30
2022-07-29T12:02:48.034Z,25.50
2022-07-29T12:05:24.029Z,25.70
2022-07-29T12:08:23.416Z,25.90
2022-07-29T12:10:51.785Z,25.60
2022-07-29T12:13:20.533Z,25.40
2022-07-29T12:15:57.775Z,25.10
2022-07-29T12:18:27.706Z,25.30
2022-07-29T12:21:03.969Z,25.30
2022-07-29T12:23:35.537Z,25.20
2022-07-29T12:26:07.531Z,25.20
2022-07-29T12:28:39.333Z,25.30
2022-07-29T12:31:06.664Z,25.30
2022-07-29T12:33:35.620Z,25.40
2022-07-29T12:36:07.598Z,25.30
2022-07-29T12:38:36.413Z,25.60
2022-07-29T12:41:04.321Z,25.90
2022-07-29T12:43:32.010Z,26.00
2022-07-29T12:46:15.588Z,26.20
2022-07-29T12:48:44.132Z,26.50
2022-07-29T12:51:12.459Z,26.40
2022-07-29T12:53:40.276Z,26.60
2022-07-29T12:56:40.561Z,26.70
2022-07-29T12:59:21.875Z,27.00
2022-07-29T13:01:51.302Z,26.90
2022-07-29T13:04:29.928Z,26.90
2022-07-29T13:07:05.344Z,26.30
2022-07-29T13:09:45.534Z,26.50
2022-07-29T13:12:14.307Z,26.40
2022-07-29T13:14:50.121Z,25.60
2022-07-29T13:17:19.041Z,25.70
2022-07-29T13:19:51.139Z,25.50
2022-07-29T13:22:23.411Z,25.40
2022-07-29T13:25:02.093Z,25.30
2022-07-29T13:27:31.147Z,25.50
2022-07-29T13:30:00.654Z,25.40
2022-07-29T13:32:30.321Z,25.60
2022-07-29T13:34:59.942Z,25.60
2022-07-29T13:37:27.594Z,25.40
2022-07-29T13:39:54.802Z,25.50
2022-07-29T13:42:24.082Z,25.60
2022-07-29T13:44:51.597Z,25.30
2022-07-29T13:47:20.353Z,25.40
2022-07-29T13:49:47.630Z,25.40
2022-07-29T13:52:14.907Z,25.30
2022-07-29T13:54:42.794Z,25.20
2022-07-29T13:57:11.754Z,25.40
2022-07-29T13:59:40.340Z,25.20
2022-07-29T14:02:07.821Z,25.40
2022-07-29T14:04:35.551Z,25.40
2022-07-29T14:07:03.971Z,25.50
2022-07-29T14:09:41.480Z,25.30
2022-07-29T14:12:09.675Z,24.80
2022-07-29T14:14:37.164Z,24.80
2022-07-29T14:17:05.057Z,24.90
2022-07-29T14:19:32.355Z,24.60
2022-07-29T14:22:00.147Z,24.90
2022-07-29T14:24:27.620Z,25.10
2022-07-29T14:26:54.909Z,25.20
2022-07-29T14:29:22.227Z,25.40
2022-07-29T14:31:50.041Z,24.90
2022-07-29T14:34:17.291Z,24.70
2022-07-29T14:36:44.529Z,24.80
2022-07-29T14:39:12.213Z,25.10
2022-07-29T14:41:39.531Z,25.00
2022-07-29T14:44:06.709Z,25.00
2022-07-29T14:46:34.000Z,24.90
2022-07-29T14:49:01.356Z,25.00
2022-07-29T14:51:32.513Z,25.20
2022-07-29T14:54:00.039Z,25.50
2022-07-29T14:56:37.138Z,25.60
2022-07-29T14:59:04.790Z,25.50
2022-07-29T15:01:32.059Z,25.70
2022-07-29T15:03:59.931Z,26.00
2022-07-29T15:06:27.733Z,25.60
2022-07-29T15:08:54.931Z,25.90
2022-07-29T15:11:22.140Z,25.80
2022-07-29T15:13:49.314Z,26.00
2022-07-29T15:16:16.583Z,26.20
2022-07-29T15:18:43.796Z,26.40
2022-07-29T15:21:10.988Z,26.10
2022-07-29T15:23:38.255Z,26.10
2022-07-29T15:26:05.645Z,26.10
2022-07-29T15:28:32.951Z,25.90
2022-07-29T15:31:00.225Z,26.10
2022-07-29T15:33:27.532Z,26.40
2022-07-29T15:35:56.525Z,26.50
2022-07-29T15:38:28.519Z,26.60
2022-07-29T15:40:56.317Z,26.50
2022-07-29T15:43:24.087Z,26.70
2022-07-29T15:45:53.743Z,26.70
2022-07-29T15:48:20.985Z,26.70
2022-07-29T15:50:49.190Z,26.90
2022-07-29T15:53:16.365Z,27.00
2022-07-29T15:55:44.894Z,27.20
2022-07-29T15:58:12.155Z,27.10
2022-07-29T16:00:39.473Z,26.90
2022-07-29T16:03:06.668Z,26.90
2022-07-29T16:05:33.905Z,26.50
2022-07-29T16:08:01.104Z,26.60
2022-07-29T16:10:28.337Z,26.40
2022-07-29T16:12:55.506Z,26.40
2022-07-29T16:15:22.724Z,26.00
2022-07-29T16:17:50.043Z,26.20
2022-07-29T16:20:17.691Z,26.20
2022-07-29T16:22:44.885Z,26.30
2022-07-29T16:25:12.096Z,26.20
2022-07-29T16:27:39.314Z,26.30
2022-07-29T16:30:08.085Z,26.50
2022-07-29T16:32:35.314Z,26.50
2022-07-29T16:35:02.562Z,26.30
2022-07-29T16:37:29.751Z,26.40
2022-07-29T16:39:57.001Z,26.40
2022-07-29T16:42:44.265Z,26.70
2022-07-29T16:45:11.525Z,26.70
2022-07-29T16:47:38.744Z,26.90
2022-07-29T16:50:07.121Z,26.90
2022-07-29T16:52:34.379Z,26.90
2022-07-29T16:55:01.650Z,27.00
2022-07-29T16:57:28.891Z,26.90
2022-07-29T16:59:56.159Z,26.80
2022-07-29T17:02:23.371Z,26.70
2022-07-29T17:04:50.699Z,26.80
2022-07-29T17:07:17.961Z,26.90
2022-07-29T17:09:45.205Z,26.50
2022-07-29T17:12:12.429Z,26.40
2022-07-29T17:14:39.736Z,26.50
2022-07-29T17:17:13.622Z,26.50
2022-07-29T17:19:43.229Z,26.40
2022-07-29T17:22:17.150Z,26.40
2022-07-29T17:24:47.033Z,26.40
2022-07-29T17:27:14.598Z,26.30
2022-07-29T17:29:42.052Z,26.40
2022-07-29T17:32:10.540Z,26.10
2022-07-29T17:34:39.051Z,25.90
2022-07-29T17:37:07.552Z,25.80
2022-07-29T17:39:35.182Z,25.60
2022-07-29T17:42:06.646Z,25.40
2022-07-29T17:44:36.240Z,25.30
2022-07-29T17:47:05.162Z,25.40
2022-07-29T17:49:33.396Z,25.60
2022-07-29T17:52:03.749Z,25.70
2022-07-29T17:54:31.006Z,25.80
2022-07-29T17:56:58.459Z,26.00
2022-07-29T17:59:25.803Z,26.10
2022-07-29T18:01:53.125Z,26.00
2022-07-29T18:04:20.385Z,26.20
2022-07-29T18:06:47.704Z,26.20
2022-07-29T18:09:14.942Z,26.20
2022-07-29T18:11:44.401Z,26.30
2022-07-29T18:14:13.019Z,25.90
2022-07-29T18:16:40.435Z,26.00
2022-07-29T18:19:07.686Z,26.10
2022-07-29T18:21:51.181Z,25.70
2022-07-29T18:24:25.939Z,25.50
2022-07-29T18:26:53.871Z,25.30
2022-07-29T18:29:21.209Z,25.00
2022-07-29T18:31:48.577Z,25.00
2022-07-29T18:34:15.896Z,24.80
2022-07-29T18:36:43.132Z,24.60
2022-07-29T18:39:10.386Z,24.60
2022-07-29T18:41:49.927Z,24.50
2022-07-29T18:44:19.626Z,24.30
2022-07-29T18:46:51.183Z,24.20
2022-07-29T18:49:18.799Z,23.90
2022-07-29T18:51:46.146Z,23.90
2022-07-29T18:54:13.357Z,23.90
2022-07-29T18:56:40.591Z,23.80
2022-07-29T18:59:07.873Z,23.80
2022-07-29T19:01:35.306Z,23.60
2022-07-29T20:16:00.358Z,22.40
2022-07-29T20:18:27.887Z,22.30
2022-07-29T20:20:55.077Z,22.30
2022-07-29T20:23:22.348Z,22.30
2022-07-29T20:25:49.844Z,22.30
2022-07-29T20:28:17.084Z,22.20
2022-07-29T20:30:44.396Z,22.30
2022-07-29T20:33:14.905Z,22.20
2022-07-29T20:35:42.134Z,22.20
2022-07-29T20:38:09.390Z,22.20
2022-07-29T20:40:36.612Z,22.20
2022-07-29T20:43:03.917Z,22.20
2022-07-29T20:45:31.124Z,22.20
2022-07-29T20:47:58.349Z,22.20
2022-07-29T20:50:25.524Z,22.30
2022-07-29T20:52:53.153Z,22.30
2022-07-29T20:55:20.428Z,22.30
2022-07-29T20:57:47.590Z,22.30
2022-07-29T21:00:14.977Z,22.30
2022-07-29T21:02:42.398Z,22.30
2022-07-29T21:05:09.961Z,22.30
2022-07-29T21:07:37.144Z,22.30
2022-07-29T21:10:07.156Z,22.30
2022-07-29T21:12:34.407Z,22.30
2022-07-29T21:15:01.709Z,22.20
2022-07-29T21:17:28.971Z,22.20
2022-07-29T21:19:56.186Z,22.20
2022-07-29T21:22:23.432Z,22.10
2022-07-29T21:24:50.617Z,22.10
2022-07-29T21:27:21.233Z,22.10
2022-07-29T21:29:49.177Z,22.00
2022-07-29T21:32:27.627Z,21.90
2022-07-29T21:34:58.080Z,21.90
2022-07-29T21:37:25.293Z,21.90
2022-07-29T21:39:52.601Z,21.90
2022-07-29T21:42:19.821Z,21.80
2022-07-29T21:44:47.016Z,21.80
2022-07-29T21:47:14.203Z,21.80
2022-07-29T21:49:41.449Z,21.70
2022-07-29T21:52:08.990Z,21.70
2022-07-29T21:54:36.294Z,21.70
2022-07-29T21:57:04.151Z,21.60
2022-07-29T21:59:31.983Z,21.60
2022-07-29T22:01:59.157Z,21.60
2022-07-29T22:04:27.971Z,21.50
2022-07-29T22:06:55.375Z,21.50
2022-07-29T22:09:22.586Z,21.40
2022-07-29T22:11:49.835Z,21.30
2022-07-29T22:14:17.482Z,21.30
2022-07-29T22:16:46.245Z,21.20
